createdAt,value
2022-10-03T00:02:13.741Z,16.23
2022-10-03T00:05:12.099Z,15.50
2022-10-03T00:08:00.967Z,9.70
2022-10-03T00:10:36.868Z,11.33
2022-10-03T00:13:26.369Z,9.17
2022-10-03T00:16:08.593Z,18.53
2022-10-03T00:19:05.173Z,10.63
2022-10-03T00:22:30.222Z,9.40
2022-10-03T00:25:02.921Z,7.97
2022-10-03T00:27:33.362Z,6.37
2022-10-03T00:30:18.441Z,8.90
2022-10-03T00:33:09.612Z,8.43
2022-10-03T00:36:11.797Z,8.63
2022-10-03T00:38:52.431Z,8.10
2022-10-03T00:41:34.874Z,6.73
2022-10-03T00:44:08.045Z,8.90
2022-10-03T00:46:48.449Z,11.63
2022-10-03T00:49:57.149Z,11.77
2022-10-03T00:52:45.024Z,9.57
2022-10-03T00:55:34.471Z,12.33
2022-10-03T00:58:07.429Z,7.27
2022-10-03T01:00:35.683Z,10.47
2022-10-03T01:03:34.929Z,9.97
2022-10-03T01:06:27.141Z,7.10
2022-10-03T01:09:15.241Z,8.77
2022-10-03T01:11:51.804Z,9.37
2022-10-03T01:14:20.327Z,11.43
2022-10-03T01:17:00.284Z,7.70
2022-10-03T01:19:47.122Z,14.43
2022-10-03T01:22:56.122Z,12.83
2022-10-03T01:25:26.813Z,8.97
2022-10-03T01:28:25.471Z,9.67
2022-10-03T01:31:04.804Z,9.40
2022-10-03T01:33:42.571Z,9.47
2022-10-03T01:36:19.536Z,8.13
2022-10-03T01:39:26.339Z,8.53
2022-10-03T01:42:00.964Z,6.73
2022-10-03T01:44:55.748Z,11.40
2022-10-03T01:47:22.916Z,7.70
2022-10-03T01:50:14.219Z,7.73
2022-10-03T01:53:00.047Z,7.07
2022-10-03T01:55:36.682Z,9.93
2022-10-03T01:58:17.986Z,11.47
2022-10-03T02:01:10.198Z,11.30
2022-10-03T02:04:07.129Z,12.97
2022-10-03T02:07:13.939Z,7.57
2022-10-03T02:09:56.005Z,11.33
2022-10-03T02:12:23.084Z,11.90
2022-10-03T02:14:59.522Z,13.43
2022-10-03T02:17:45.058Z,11.50
2022-10-03T02:20:23.878Z,12.20
2022-10-03T02:22:55.137Z,10.03
2022-10-03T02:25:43.144Z,8.93
2022-10-03T02:28:10.257Z,13.07
2022-10-03T02:30:48.144Z,11.37
2022-10-03T02:33:48.566Z,11.03
2022-10-03T02:36:21.484Z,11.97
2022-10-03T02:39:01.981Z,9.77
2022-10-03T02:41:32.870Z,12.13
2022-10-03T02:44:18.252Z,8.97
2022-10-03T02:47:05.865Z,21.23
2022-10-03T02:49:54.544Z,16.23
2022-10-03T02:52:59.706Z,12.23
2022-10-03T02:55:44.609Z,10.93
2022-10-03T02:58:29.702Z,12.40
2022-10-03T03:01:22.306Z,11.37
2022-10-03T03:04:14.739Z,13.50
2022-10-03T03:07:00.457Z,11.93
2022-10-03T03:09:39.538Z,17.07
2022-10-03T03:12:28.656Z,13.37
2022-10-03T03:15:14.189Z,12.73
2022-10-03T03:18:16.432Z,17.37
2022-10-03T03:21:21.259Z,12.37
2022-10-03T03:24:05.880Z,18.57
2022-10-03T03:26:35.795Z,15.23
2022-10-03T03:29:25.417Z,16.00
2022-10-03T03:32:12.141Z,16.43
2022-10-03T03:35:04.640Z,17.70
2022-10-03T03:37:49.629Z,17.23
2022-10-03T03:40:51.519Z,16.60
2022-10-03T03:43:44.746Z,13.20
2022-10-03T03:46:40.662Z,16.67
2022-10-03T03:49:29.627Z,19.60
2022-10-03T03:52:31.458Z,15.83
2022-10-03T03:55:06.338Z,14.73
2022-10-03T03:57:36.524Z,14.17
2022-10-03T04:00:13.050Z,17.43
2022-10-03T04:03:10.983Z,17.57
2022-10-03T04:05:47.274Z,14.37
2022-10-03T04:08:39.012Z,17.20
2022-10-03T04:11:12.416Z,16.27
2022-10-03T04:14:07.227Z,17.30
2022-10-03T04:17:08.901Z,14.37
2022-10-03T04:19:55.199Z,14.37
2022-10-03T04:22:35.216Z,14.13
2022-10-03T04:25:34.964Z,17.07
2022-10-03T04:28:38.629Z,19.97
2022-10-03T04:31:44.407Z,13.60
2022-10-03T04:34:18.327Z,13.33
2022-10-03T04:37:13.025Z,17.57
2022-10-03T04:39:43.937Z,14.20
2022-10-03T04:42:27.463Z,13.60
2022-10-03T04:45:31.520Z,13.97
2022-10-03T04:48:18.134Z,17.50
2022-10-03T04:51:07.524Z,15.57
2022-10-03T04:53:41.921Z,15.87
2022-10-03T04:56:31.847Z,17.13
2022-10-03T04:59:19.927Z,15.10
2022-10-03T05:02:15.268Z,17.60
2022-10-03T05:05:12.295Z,13.40
2022-10-03T05:07:48.373Z,16.77
2022-10-03T05:10:37.437Z,20.53
2022-10-03T05:13:18.391Z,20.77
2022-10-03T05:16:02.628Z,13.50
2022-10-03T05:18:41.514Z,19.37
2022-10-03T05:21:14.517Z,15.20
2022-10-03T05:24:20.651Z,18.27
2022-10-03T05:27:15.351Z,12.30
2022-10-03T05:30:07.288Z,18.40
2022-10-03T05:32:58.411Z,16.87
2022-10-03T05:35:40.412Z,16.27
2022-10-03T05:38:23.634Z,14.30
2022-10-03T05:41:05.486Z,17.53
2022-10-03T05:44:02.640Z,14.90
2022-10-03T05:46:54.600Z,16.87
2022-10-03T05:49:29.784Z,14.77
2022-10-03T05:52:08.235Z,17.63
2022-10-03T05:54:56.569Z,21.50
2022-10-03T05:58:08.455Z,16.67
2022-10-03T06:00:58.898Z,18.67
2022-10-03T06:03:55.043Z,11.40
2022-10-03T06:07:03.056Z,21.07
2022-10-03T06:10:06.440Z,16.90
2022-10-03T06:12:47.510Z,21.77
2022-10-03T06:15:50.032Z,15.30
2022-10-03T06:18:51.259Z,20.03
2022-10-03T06:21:42.233Z,19.13
2022-10-03T06:24:38.617Z,12.53
2022-10-03T06:27:46.977Z,15.93
2022-10-03T06:30:32.941Z,16.47
2022-10-03T06:33:21.563Z,15.33
2022-10-03T06:36:07.572Z,16.83
2022-10-03T06:38:37.404Z,16.83
2022-10-03T06:41:31.081Z,13.63
2022-10-03T06:43:58.634Z,14.77
2022-10-03T06:46:55.361Z,16.07
2022-10-03T06:49:50.536Z,18.73
2022-10-03T06:52:43.915Z,19.43
2022-10-03T06:55:30.375Z,21.27
2022-10-03T06:58:19.551Z,11.70
2022-10-03T07:01:12.785Z,11.80
2022-10-03T07:03:55.165Z,13.50
2022-10-03T07:06:44.219Z,15.07
2022-10-03T07:09:33.174Z,15.83
2022-10-03T07:12:47.558Z,16.87
2022-10-03T07:16:20.989Z,13.20
2022-10-03T07:19:16.404Z,16.10
2022-10-03T07:21:47.339Z,17.67
2022-10-03T07:24:45.086Z,15.60
2022-10-03T07:27:31.509Z,16.70
2022-10-03T07:30:34.789Z,13.93
2022-10-03T07:33:46.440Z,15.90
2022-10-03T07:36:50.935Z,12.33
2022-10-03T07:40:13.727Z,12.33
2022-10-03T07:43:02.836Z,32.43
2022-10-03T07:45:54.906Z,15.70
2022-10-03T07:48:51.050Z,13.67
2022-10-03T07:51:21.741Z,19.83
2022-10-03T07:54:08.554Z,15.57
2022-10-03T07:57:22.030Z,14.03
2022-10-03T07:59:58.557Z,15.87
2022-10-03T08:02:42.987Z,17.80
2022-10-03T08:05:55.614Z,17.57
2022-10-03T08:09:13.914Z,15.00
2022-10-03T08:12:07.071Z,17.30
2022-10-03T08:14:47.004Z,24.00
2022-10-03T08:17:35.344Z,15.50
2022-10-03T08:20:39.279Z,15.33
2022-10-03T08:23:28.087Z,19.83
2022-10-03T08:26:07.527Z,19.67
2022-10-03T08:28:41.582Z,20.10
2022-10-03T08:31:23.205Z,17.60
2022-10-03T08:34:39.809Z,18.53
2022-10-03T08:37:38.839Z,22.27
2022-10-03T08:40:27.507Z,17.40
2022-10-03T08:42:57.830Z,12.63
2022-10-03T08:45:58.329Z,12.50
2022-10-03T08:48:59.570Z,15.53
2022-10-03T08:51:51.089Z,14.80
2022-10-03T08:54:52.101Z,18.43
2022-10-03T08:57:50.979Z,14.20
2022-10-03T09:00:22.137Z,13.90
2022-10-03T09:03:32.016Z,13.67
2022-10-03T09:06:19.612Z,17.63
2022-10-03T09:09:25.016Z,19.50
2022-10-03T09:12:31.859Z,19.57
2022-10-03T09:15:10.499Z,19.13
2022-10-03T09:18:02.423Z,18.50
2022-10-03T09:20:51.261Z,17.27
2022-10-03T09:23:40.772Z,18.40
2022-10-03T09:26:48.769Z,13.80
2022-10-03T09:29:40.787Z,15.13
2022-10-03T09:32:33.937Z,15.47
2022-10-03T09:35:35.800Z,16.40
2022-10-03T09:38:27.856Z,17.13
2022-10-03T09:41:28.495Z,14.63
2022-10-03T09:44:27.353Z,13.67
2022-10-03T09:47:21.824Z,12.50
2022-10-03T09:50:28.716Z,13.60
2022-10-03T09:53:30.350Z,10.40
2022-10-03T09:56:16.190Z,11.73
2022-10-03T09:58:49.064Z,11.00
2022-10-03T10:01:25.260Z,13.80
2022-10-03T10:04:43.364Z,15.20
2022-10-03T10:07:50.862Z,18.23
2022-10-03T10:10:45.321Z,11.37
2022-10-03T10:14:07.302Z,9.40
2022-10-03T10:17:00.387Z,10.73
2022-10-03T10:19:50.811Z,12.37
2022-10-03T10:22:32.869Z,15.17
2022-10-03T10:25:18.092Z,12.87
2022-10-03T10:28:23.038Z,12.33
2022-10-03T10:31:23.805Z,13.87
2022-10-03T10:34:12.467Z,11.23
2022-10-03T10:37:10.099Z,13.17
2022-10-03T10:40:06.901Z,10.80
2022-10-03T10:43:31.174Z,9.97
2022-10-03T10:46:16.585Z,12.27
2022-10-03T10:49:04.632Z,9.80
2022-10-03T10:52:03.190Z,10.67
2022-10-03T10:54:56.102Z,8.80
2022-10-03T10:57:47.517Z,12.77
2022-10-03T11:00:28.173Z,14.13
2022-10-03T11:03:04.197Z,6.97
2022-10-03T11:05:55.822Z,8.33
2022-10-03T11:09:07.604Z,9.53
2022-10-03T11:12:29.226Z,10.93
2022-10-03T11:15:15.170Z,10.00
2022-10-03T11:18:23.437Z,8.63
2022-10-03T11:21:28.482Z,11.83
2022-10-03T11:24:19.432Z,10.73
2022-10-03T11:27:07.120Z,5.13
2022-10-03T11:30:03.171Z,12.40
2022-10-03T11:33:14.439Z,7.90
2022-10-03T11:35:43.201Z,7.17
2022-10-03T11:38:25.099Z,8.77
2022-10-03T11:41:24.399Z,8.93
2022-10-03T11:44:09.929Z,11.53
2022-10-03T11:47:04.665Z,10.80
2022-10-03T11:50:13.561Z,9.07
2022-10-03T11:53:08.393Z,14.60
2022-10-03T11:55:45.311Z,7.87
2022-10-03T11:58:37.097Z,9.40
2022-10-03T12:01:08.255Z,10.57
2022-10-03T12:04:05.489Z,6.97
2022-10-03T12:07:24.805Z,7.33
2022-10-03T12:10:15.243Z,11.77
2022-10-03T12:13:05.429Z,9.03
2022-10-03T12:15:49.724Z,6.27
2022-10-03T12:18:20.479Z,12.83
2022-10-03T12:21:03.124Z,9.30
2022-10-03T12:23:56.916Z,7.83
2022-10-03T12:26:52.198Z,9.70
2022-10-03T12:29:21.856Z,12.57
2022-10-03T12:31:48.782Z,9.87
2022-10-03T12:34:40.130Z,9.40
2022-10-03T12:37:25.282Z,7.93
2022-10-03T12:39:55.067Z,11.20
2022-10-03T12:42:56.231Z,6.07
2022-10-03T12:45:47.661Z,9.40
2022-10-03T12:48:14.955Z,7.60
2022-10-03T12:50:50.245Z,11.77
2022-10-03T12:53:19.858Z,9.47
2022-10-03T12:56:07.476Z,9.13
2022-10-03T12:58:40.325Z,9.53
2022-10-03T13:01:45.025Z,7.97
2022-10-03T13:04:30.219Z,8.97
2022-10-03T13:07:23.427Z,8.17
2022-10-03T13:09:59.329Z,7.73
2022-10-03T13:12:52.968Z,8.30
2022-10-03T13:15:32.012Z,7.07
2022-10-03T13:18:15.008Z,8.67
2022-10-03T13:21:33.442Z,8.73
2022-10-03T13:24:38.154Z,10.90
2022-10-03T13:27:17.127Z,6.40
2022-10-03T13:29:49.653Z,8.53
2022-10-03T13:32:36.062Z,8.97
2022-10-03T13:35:34.010Z,9.43
2022-10-03T13:38:19.049Z,8.17
2022-10-03T13:40:59.803Z,10.00
2022-10-03T13:43:37.812Z,10.17
2022-10-03T13:46:20.352Z,10.63
2022-10-03T13:49:14.489Z,9.43
2022-10-03T13:51:59.351Z,10.07
2022-10-03T13:54:56.764Z,8.53
2022-10-03T13:57:28.811Z,6.43
2022-10-03T14:00:16.084Z,13.27
2022-10-03T14:02:43.126Z,10.13
2022-10-03T14:05:31.050Z,12.10
2022-10-03T14:08:34.044Z,8.50
2022-10-03T14:11:22.776Z,7.93
2022-10-03T14:14:05.534Z,10.73
2022-10-03T14:16:36.387Z,6.77
2022-10-03T14:19:30.914Z,7.80
2022-10-03T14:22:04.876Z,7.67
2022-10-03T14:24:46.104Z,10.37
2022-10-03T14:27:19.074Z,8.37
2022-10-03T14:30:11.289Z,6.07
2022-10-03T14:32:50.452Z,4.23
2022-10-03T14:35:39.396Z,6.17
2022-10-03T14:38:52.337Z,3.77
2022-10-03T14:41:23.720Z,9.87
2022-10-03T14:43:55.756Z,9.97
2022-10-03T14:46:27.709Z,7.97
2022-10-03T14:49:48.556Z,7.70
2022-10-03T14:52:13.081Z,8.83
2022-10-03T14:54:43.251Z,9.77
2022-10-03T14:58:05.614Z,8.43
2022-10-03T15:00:49.594Z,12.03
2022-10-03T15:03:16.677Z,11.10
2022-10-03T15:05:59.987Z,4.73
2022-10-03T15:08:35.164Z,9.23
2022-10-03T15:11:06.224Z,7.90
2022-10-03T15:13:42.617Z,8.93
2022-10-03T15:16:15.151Z,10.63
2022-10-03T15:18:51.619Z,9.17
2022-10-03T15:21:19.279Z,9.60
2022-10-03T15:23:49.744Z,6.47
2022-10-03T15:26:21.666Z,7.07
2022-10-03T15:28:53.989Z,12.07
2022-10-03T15:31:33.065Z,7.30
2022-10-03T15:34:03.656Z,11.17
2022-10-03T15:36:41.804Z,6.90
2022-10-03T15:39:26.898Z,7.93
2022-10-03T15:42:09.072Z,9.07
2022-10-03T15:44:50.396Z,10.53
2022-10-03T15:47:24.579Z,11.30
2022-10-03T15:50:00.513Z,10.10
2022-10-03T15:52:40.114Z,11.17
2022-10-03T15:55:20.439Z,10.57
2022-10-03T15:57:52.159Z,12.33
2022-10-03T16:00:31.354Z,6.47
2022-10-03T16:03:13.181Z,7.83
2022-10-03T16:06:24.498Z,8.13
2022-10-03T16:09:03.515Z,8.53
2022-10-03T16:12:05.572Z,12.67
2022-10-03T16:14:47.228Z,10.67
2022-10-03T16:17:49.797Z,13.13
2022-10-03T16:20:22.724Z,7.60
2022-10-03T16:23:04.510Z,6.57
2022-10-03T16:25:55.354Z,7.30
2022-10-03T16:28:39.557Z,7.03
2022-10-03T16:31:15.377Z,8.03
2022-10-03T16:33:55.874Z,7.87
2022-10-03T16:36:25.726Z,13.27
2022-10-03T16:38:54.254Z,10.43
2022-10-03T16:41:31.837Z,11.60
2022-10-03T16:44:11.423Z,8.90
2022-10-03T16:46:40.424Z,8.27
2022-10-03T16:49:42.591Z,15.17
2022-10-03T16:52:12.790Z,7.33
2022-10-03T16:54:43.948Z,6.70
2022-10-03T16:57:26.522Z,8.87
2022-10-03T16:59:54.604Z,6.17
2022-10-03T17:02:30.398Z,8.27
2022-10-03T17:05:09.857Z,8.07
2022-10-03T17:07:51.760Z,8.90
2022-10-03T17:10:38.098Z,6.13
2022-10-03T17:13:17.764Z,9.27
2022-10-03T17:15:52.277Z,5.60
2022-10-03T17:18:25.588Z,9.73
2022-10-03T17:21:30.194Z,8.30
2022-10-03T17:24:11.179Z,5.70
2022-10-03T17:26:45.014Z,5.40
2022-10-03T17:29:25.658Z,5.93
2022-10-03T17:31:58.339Z,9.90
2022-10-03T17:34:38.268Z,15.03
2022-10-03T17:37:29.814Z,11.00
2022-10-03T17:40:18.445Z,9.97
2022-10-03T17:42:51.477Z,9.67
2022-10-03T17:45:44.212Z,7.43
2022-10-03T17:48:26.116Z,15.33
2022-10-03T17:50:53.084Z,9.20
2022-10-03T17:53:31.442Z,6.23
2022-10-03T17:56:13.009Z,8.90
2022-10-03T17:58:45.897Z,11.67
2022-10-03T18:01:17.543Z,10.10
2022-10-03T18:03:58.171Z,10.57
2022-10-03T18:06:36.904Z,7.40
2022-10-03T18:09:22.869Z,9.83
2022-10-03T18:11:51.262Z,6.97
2022-10-03T18:14:36.352Z,8.57
2022-10-03T18:17:32.567Z,12.73
2022-10-03T18:20:34.456Z,9.83
2022-10-03T18:23:08.480Z,10.97
2022-10-03T18:26:18.550Z,9.13
2022-10-03T18:29:17.477Z,9.70
2022-10-03T18:31:50.318Z,15.50
2022-10-03T18:34:44.877Z,10.17
2022-10-03T18:37:54.342Z,10.23
2022-10-03T18:40:42.509Z,11.10
2022-10-03T18:43:24.840Z,11.23
2022-10-03T18:46:14.385Z,13.13
2022-10-03T18:49:03.050Z,10.93
2022-10-03T18:51:37.602Z,14.17
2022-10-03T18:54:17.000Z,12.40
2022-10-03T18:56:47.601Z,15.87
2022-10-03T18:59:22.650Z,10.23
2022-10-03T19:01:59.069Z,13.07
2022-10-03T19:04:48.811Z,9.43
2022-10-03T19:07:21.902Z,12.10
2022-10-03T19:10:18.982Z,9.13
2022-10-03T19:13:18.516Z,10.70
2022-10-03T19:16:09.736Z,12.77
2022-10-03T19:19:03.236Z,12.90
2022-10-03T19:21:36.380Z,11.13
2022-10-03T19:24:46.490Z,12.43
2022-10-03T19:27:21.584Z,11.13
2022-10-03T19:29:54.911Z,8.77
2022-10-03T19:32:24.942Z,16.77
2022-10-03T19:34:53.505Z,14.17
2022-10-03T19:37:26.506Z,14.27
2022-10-03T19:39:53.537Z,12.17
2022-10-03T19:42:36.542Z,8.37
2022-10-03T19:45:04.332Z,12.47
2022-10-03T19:47:35.620Z,9.73
2022-10-03T19:50:25.117Z,12.33
2022-10-03T19:52:52.713Z,11.30
2022-10-03T19:55:26.468Z,10.70
2022-10-03T19:57:59.181Z,7.70
2022-10-03T20:00:38.844Z,9.50
2022-10-03T20:03:26.119Z,8.83
2022-10-03T20:06:03.082Z,10.67
2022-10-03T20:08:52.787Z,7.37
2022-10-03T20:11:49.386Z,9.30
2022-10-03T20:14:31.511Z,14.53
2022-10-03T20:17:23.890Z,11.37
2022-10-03T20:20:15.446Z,11.97
2022-10-03T20:22:43.340Z,9.27
2022-10-03T20:25:30.524Z,7.70
2022-10-03T20:28:02.524Z,9.10
2022-10-03T20:30:47.949Z,10.83
2022-10-03T20:33:24.564Z,17.27
2022-10-03T20:36:17.779Z,12.70
2022-10-03T20:39:00.040Z,11.23
2022-10-03T20:41:38.129Z,13.30
2022-10-03T20:44:18.023Z,10.03
2022-10-03T20:47:02.267Z,8.60
2022-10-03T20:49:42.252Z,13.17
2022-10-03T20:52:19.134Z,9.57
2022-10-03T20:54:51.124Z,14.17
2022-10-03T20:57:28.100Z,12.83
2022-10-03T21:00:15.864Z,10.57
2022-10-03T21:03:04.057Z,13.43
2022-10-03T21:05:43.269Z,12.03
2022-10-03T21:08:21.874Z,12.73
2022-10-03T21:10:57.710Z,9.70
2022-10-03T21:13:30.421Z,12.13
2022-10-03T21:15:58.706Z,9.87
2022-10-03T21:18:31.527Z,10.57
2022-10-03T21:21:19.490Z,9.27
2022-10-03T21:24:03.372Z,13.97
2022-10-03T21:27:01.452Z,14.10
2022-10-03T21:29:32.259Z,10.67
2022-10-03T21:32:02.241Z,15.07
2022-10-03T21:34:49.494Z,11.93
2022-10-03T21:37:27.076Z,13.77
2022-10-03T21:40:05.268Z,11.40
2022-10-03T21:42:54.302Z,12.27
2022-10-03T21:45:33.457Z,11.57
2022-10-03T21:48:38.392Z,15.67
2022-10-03T21:51:31.489Z,10.30
2022-10-03T21:54:02.395Z,12.77
2022-10-03T21:56:47.212Z,13.63
2022-10-03T22:00:11.809Z,15.33
2022-10-03T22:03:09.939Z,12.73
2022-10-03T22:06:00.421Z,13.33
2022-10-03T22:08:32.909Z,11.53
2022-10-03T22:11:20.059Z,15.37
2022-10-03T22:14:23.141Z,14.10
2022-10-03T22:17:11.845Z,15.97
2022-10-03T22:19:51.067Z,12.17
2022-10-03T22:22:36.509Z,15.87
2022-10-03T22:25:09.576Z,13.97
2022-10-03T22:28:04.300Z,18.50
2022-10-03T22:30:37.057Z,12.80
2022-10-03T22:33:16.901Z,17.23
2022-10-03T22:35:52.546Z,17.43
2022-10-03T22:38:24.452Z,14.13
2022-10-03T22:40:52.780Z,16.47
2022-10-03T22:43:20.695Z,14.80
2022-10-03T22:45:50.961Z,16.53
2022-10-03T22:48:33.293Z,17.10
2022-10-03T22:51:02.911Z,19.20
2022-10-03T22:53:34.874Z,14.70
2022-10-03T22:56:42.411Z,17.63
2022-10-03T22:59:20.036Z,17.10
2022-10-03T23:01:50.951Z,15.93
2022-10-03T23:04:26.579Z,20.47
2022-10-03T23:07:09.151Z,18.03
2022-10-03T23:09:40.886Z,12.43
2022-10-03T23:12:11.731Z,13.73
2022-10-03T23:14:46.306Z,13.40
2022-10-03T23:17:41.148Z,17.13
2022-10-03T23:20:18.940Z,20.30
2022-10-03T23:22:50.666Z,13.27
2022-10-03T23:25:27.608Z,16.73
2022-10-03T23:27:54.502Z,19.57
2022-10-03T23:30:24.558Z,16.97
2022-10-03T23:32:56.205Z,17.23
2022-10-03T23:35:31.984Z,15.00
2022-10-03T23:38:00.418Z,17.30
2022-10-03T23:40:45.503Z,15.80
2022-10-03T23:43:48.938Z,19.07
2022-10-03T23:46:22.501Z,22.43
2022-10-03T23:48:54.971Z,18.57
2022-10-03T23:51:36.483Z,23.87
2022-10-03T23:54:06.308Z,18.93
2022-10-03T23:56:45.891Z,14.23
2022-10-03T23:59:15.866Z,18.70
